Etusivu
METAR-TAF:

METAR-TAF

Lentoasemat :

Ghadamés, Libya

Leveyspiiri: 30-08N, Pituuspiiri: 009-30E, korkeus merenpinnasta: 346 m

METAR: puuttuu

Aika: 00:12 (22:12 UTC)

Sääennuste

Tämä raportti tehtiin 5 tuntia ja 12 minuuttia sitten, kello 17.00 UTC
Ennuste voimassa 16. päivästä klo 18 UTC - 17. päivään klo 18 UTC
Tuuli 10 kn pohjoisesta
Näkyvyys: 8000 m
Hajanaisia pilviä 4000 ft:n korkeudessa
Tulossa
16. päivästä klo 21 UTC - 16. päivään klo 23 UTC
Tuuli 2 kn eri suunnista
Tulossa
17. päivästä klo 16 UTC - 17. päivään klo 18 UTC
Tuuli 12 kn pohjoisesta

TAF: HLTD 161700Z 1618/1718 36010KT 8000 SCT040 BECMG 1621/1623 VRB02KT BECMG 1716/1718 36012KT

Säähavainnot ja -ennusteet yli 4000 lentoasemalta (METAR- ja TAF-raportit).

Käytössä olevat sääasemat on merkitty karttaan keltaisilla ja punaisilla pisteillä.

Aseta hiiri pisteen päälle nähdäksesi sääaseman nimen.

Klikkaa sitten nähdäksesi säähavainnot ja -ennusteet.

Kartan vaihtaminen: klikkaa mustalla rastilla varustettuja vihreitä pisteitä, niin voit zoomata sisään; viivalla varustettua vihreää pistettä, niin voit zoomata ulos tai vihreitä nuolia, niin pääset viereisille kartoille.


METAR-TAF: